Canadian Cyclist
   Follow us on Twitter
 
Find us on Facebook
 
D'Ornellas Xmas (+9516) Nov 29
 
ACS Apollo Bikes - November 19
 
WoB (+6935) - Oct 28
 
IMBA Canada - Dec 14
 
Share the Road - Dec 14
 

 

 

 
Spec We Win Road CC1 Oct 6
 

Daily News


 

June 17/00 12:26 pm - Mt Tremblant XC Results for Pee-Wee and Minime


Posted by Editoress on 06/17/00
 

Canada Cup #2 - Mt-Tremblant Quebec Pee-wee and Minime Results
courtesy STAT Timing



PEE-WEE 10-12 FILLES - 3.60 Km. - [ 4 inscrits ]


CLS NUM NUM CONCURRENT ------------------------ COMMANDITAIRE ---=-------- TEMPS MOYENNE ---POINTS---
DOSS CARTE NOM ET PRENOM PR. NAT. = TOTAL --ECART-- Km/H PROV. CCAN

1 343 90132 BELANGER, Alexandra QC CAN = 0:22:42.36 09.51 100.00
2 341 90005 PICHETTE, Andreanne QC CAN = 0:23:48.06 0:01:05.70 09.08 95.40
3 342 90131 HARVEY, Sophie QC CAN = 0:24:35.64 0:01:53.28 08.78 92.32
4 344 90241 MANNING-DEWAR, Liza Jane ON CAN = 0:29:27.68 0:06:45.32 07.33 77.07

MINIME 13-14 FILLES - 7.20 Km. - [ 7 inscrits ]


CLS NUM NUM CONCURRENT ------------------------ COMMANDITAIRE ---=-------- TEMPS MOYENNE ---POINTS---
DOSS CARTE NOM ET PRENOM PR. NAT. = TOTAL --ECART-- Km/H PROV. CCAN

1 405 98372 GAGNE, Olivia QC CAN = 0:36:01.59 11.99 100.00
2 403 98524 JACQUES, Isabelle QC CAN = 0:39:36.50 0:03:34.91 10.91 90.96
3 402 90013 BEDARD, Anne-Catherine QC CAN = 0:40:02.16 0:04:00.57 10.79 89.99
4 404 98215 PICHETTE, Evelyne QC CAN = 0:40:02.99 0:04:01.40 10.79 89.95
5 406 90358 FRENCH, Evelyne QC CAN CLUB DE VM LE REL=AIS 0:53:33.97 0:17:32.38 08.06 67.26
6 401 98747 NUMAINVILLE, Joelle QC CAN = 0:55:45.51 0:19:43.92 07.75 64.61
7 407 90393 VATCHER, Jessica ON CAN = 1:22:37.02 0:46:35.43 05.23 43.61

PEE-WEE 10-12 GARCONS - 3.60 Km. - [ 26 inscrits ]


CLS NUM NUM CONCURRENT ------------------------ COMMANDITAIRE ---=-------- TEMPS MOYENNE ---POINTS---
DOSS CARTE NOM ET PRENOM PR. NAT. = TOTAL --ECART-- Km/H PROV. CCAN

1 307 98219 HARVEY, Alex QC CAN VOLKSWAGEN/TVA = 0:17:36.16 12.27 100.00
2 315 90398 PARKER, Mario QC CAN SPORTIF BROMONT = 0:17:38.24 0:00:02.08 12.25 99.80
3 313 90338 BLOUIN, Vincent QC CAN JR SPORT/CASCADE = 0:18:40.75 0:01:04.59 11.56 94.24
4 296 90009 BOUCHARD, Dominic QC CAN = 0:19:04.97 0:01:28.81 11.32 92.24
5 294 98687 BILODEAU, Mathieu QC CAN = 0:19:29.10 0:01:52.94 11.09 90.34
6 303 98293 GILLESPIE, Simon QC CAN = 0:20:06.77 0:02:30.61 10.74 87.52
7 310 98568 MARSOLLIER, Maxime QC CAN VOLKSWAGEN/TVA = 0:20:34.03 0:02:57.87 10.50 85.59
8 298 90010 KORTENBACH-RICE, Simon QC CAN = 0:20:52.64 0:03:16.48 10.35 84.31
9 304 90134 BOUCHARD, Etienne QC CAN DIADORA RST TITEC= 0:21:33.63 0:03:57.47 10.02 81.64
10 293 98131 JARRY-BOLDUC, Elliot QC CAN DEMERS SPORT = 0:21:42.71 0:04:06.55 09.95 81.07
11 308 90137 MORIN, Francis QC CAN = 0:22:24.03 0:04:47.87 09.64 78.58
12 295 90008 BOUCHARD, Gabriel QC CAN = 0:22:52.21 0:05:16.05 09.44 76.97
13 311 97887 POTVIN, Vincent QC CAN = 0:23:09.38 0:05:33.22 09.33 76.02
14 292 90007 CAVANAGH, Michael QC CAN = 0:23:28.80 0:05:52.64 09.20 74.97
15 316 90426 HERBERT-G., David QC CAN = 0:23:32.92 0:05:56.76 09.17 74.75
16 301 98533 JAMES, Daniel ON CAN KHS BICYCLES = 0:23:45.74 0:06:09.58 09.09 74.08
17 312 90327 MILLAR, Andrew ON CAN = 0:24:24.21 0:06:48.05 08.85 72.13
18 299 90011 LAVERTU, Alex QC CAN = 0:24:40.00 0:07:03.84 08.76 71.36


PEE-WEE 10-12 GARCONS - 3.60 Km. - [ 26 inscrits ]


CLS NUM NUM CONCURRENT ------------------------ COMMANDITAIRE ---=-------- TEMPS MOYENNE ---POINTS---
DOSS CARTE NOM ET PRENOM PR. NAT. = TOTAL --ECART-- Km/H PROV. CCAN

19 297 98589 LANGENDORF, Evan QC CAN = 0:24:40.40 0:07:04.24 08.75 71.34
20 300 90012 BRABANT, Olivier QC CAN = 0:25:03.76 0:07:27.60 08.62 70.23
21 302 90133 GILLEPSIE, Nicolas QC CAN = 0:26:22.31 0:08:46.15 08.19 66.75
22 291 90006 AUDY, Antoine QC CAN = 0:27:54.78 0:10:18.62 07.74 63.06
23 309 90138 MARSOLLIER, Baptiste QC CAN = 0:27:59.40 0:10:23.24 07.72 62.89
24 392 90421 CHARLEBOIS, Francis QC CAN = 0:45:42.68 0:28:06.52 04.73 38.51
305 90135 MARTINEAU, Simon-Pierre QC CAN = =FF=FFD.N.S.
306 90136 MARTINEAU, Olivier QC CAN = =FF=FFD.N.S.

MINIME 13-14 GARCONS - 7.20 Km. - [ 42 inscrits ]


CLS NUM NUM CONCURRENT ------------------------ COMMANDITAIRE ---=-------- TEMPS MOYENNE ---POINTS---
DOSS CARTE NOM ET PRENOM PR. NAT. = TOTAL --ECART-- Km/H PROV. CCAN

1 371 98370 GAGNE, Raphael QC CAN = 0:29:29.57 14.65 100.00
2 358 90017 BOULANGER, Jonathan QC CAN LAFERTE VO2 = 0:29:44.99 0:00:15.42 14.52 99.14
3 373 98377 LEVESQUE-GAGNON, Tommy QC CAN = 0:31:35.80 0:02:06.23 13.67 93.34
4 352 98375 BEDARD, Marc-Andre QC CAN RECORD/SUBARU = 0:31:44.16 0:02:14.59 13.61 92.93
5 385 90425 MARCOTTE, Karl QC CAN = 0:31:44.55 0:02:14.98 13.61 92.91
6 357 98132 JARRY-BOLDUC, Gabriel QC CAN DEMERS SPORT = 0:32:21.38 0:02:51.81 13.35 91.15
7 367 98226 LAVERTU, Jean-Nicolas QC CAN = 0:32:22.30 0:02:52.73 13.35 91.11
8 368 98193 MANNING-DEWAR, Warren QC CAN = 0:32:48.33 0:03:18.76 13.17 89.90
9 372 98569 HAPPY, Simon QC CAN = 0:33:04.34 0:03:34.77 13.06 89.18
10 353 90014 BELANGER, Gabriel QC CAN RECORD/TVA/STE-AN=NE 0:33:15.13 0:03:45.56 12.99 88.69
11 378 98368 BOILY, Jean-Frederik QC CAN = 0:33:23.12 0:03:53.55 12.94 88.34
12 351 98216 HAMEL, Loic QC CAN VIE SPORTIVE = 0:34:36.89 0:05:07.32 12.48 85.20
13 355 90015 VEILLEUX, David QC CAN CASCADE = 0:34:50.24 0:05:20.67 12.40 84.66
14 377 90139 CLAVET, Gabriel QC CAN = 0:35:05.56 0:05:35.99 12.31 84.04
15 381 90354 VEILLETTE, Paul QC CAN = 0:35:08.26 0:05:38.69 12.29 83.94
16 375 98159 RIEL, Louis-Philippe QC CAN = 0:36:39.71 0:07:10.14 11.78 80.45
17 374 98223 DUPUIS, Plamondon, Thierr QC CAN = 0:37:06.38 0:07:36.81 11.64 79.48
18 363 98591 LANGENDORF, Dru QC CAN VILLAGE CYCLE ET =SKI 0:37:33.80 0:08:04.23 11.50 78.51

MINIME 13-14 GARCONS - 7.20 Km. - [ 42 inscrits ]


CLS NUM NUM CONCURRENT ------------------------ COMMANDITAIRE ---=-------- TEMPS MOYENNE ---POINTS---
DOSS CARTE NOM ET PRENOM PR. NAT. = TOTAL --ECART-- Km/H PROV. CCAN

19 390 90415 BEAUGRAND, Jean-Francois QC CAN = 0:38:00.28 0:08:30.71 11.37 77.60
20 369 90022 CHARBONNEAU, Gabriel QC CAN = 0:38:50.35 0:09:20.78 11.12 75.94
21 365 90021 LOWE, Chris ON CAN CCMS = 0:39:01.66 0:09:32.09 11.07 75.57
22 364 90020 BILODEAU, Jonathan QC CAN ARPENTECH DES LAU=R. 0:39:09.06 0:09:39.49 11.03 75.33
23 366 98532 JAMES, Alex ON CAN KHS BICYCLES = 0:39:34.29 0:10:04.72 10.92 74.53
24 360 98220 MALENFANT, Jerome QC CAN RECORD/TVA/STE-AN=NE 0:40:33.60 0:11:04.03 10.65 72.71
25 370 90023 THIBAULT, Jean-Philippe QC CAN GVM SATURN = 0:40:51.90 0:11:22.33 10.57 72.17
26 356 90016 VOYER, Gregoire QC CAN VELO PLEIN AIR/TO=YOT 0:43:46.53 0:14:16.96 09.87 67.37
27 387 90424 THERRIEN, Bastien QC CAN = 0:45:13.47 0:15:43.90 09.55 65.21
28 386 90427 MALO, Mathieu QC CAN = 0:45:16.05 0:15:46.48 09.54 65.15
29 393 90409 GAGNON, Francis QC CAN = 0:48:18.51 0:18:48.94 08.94 61.05
30 382 90356 FAUCHER, Marc-Andre QC CAN VELO MONT. OUTAOU=AIS 0:48:33.72 0:19:04.15 08.90 60.73
31 391 90412 FAIRFIELD, Tyler ON CAN = 0:52:33.96 0:23:04.39 08.22 56.11
32 359 90018 CAVANAGH, Brendan QC CAN CYCLE SKI = 0:57:29.60 0:28:00.03 07.51 51.30
33 394 90411 DESOURDY, Laurent QC CAN LA CORDEE = 1:13:56.42 0:44:26.85 05.84 39.89
314 90353 FAUCHER, Benoit QC CAN VELO MONT. OUTAOU=AIS =FF=FFD.N.F.
383 90386 MORIN-PERRIN, Xavier QC CAN = =FF=FFD.N.F.
362 90019 TRUDEL, Leni QC CAN PERIGNY VELO = =FF=FFD.N.S.

MINIME 13-14 GARCONS - 7.20 Km. - [ 42 inscrits ]


CLS NUM NUM CONCURRENT ------------------------ COMMANDITAIRE ---=-------- TEMPS MOYENNE ---POINTS---
DOSS CARTE NOM ET PRENOM PR. NAT. = TOTAL --ECART-- Km/H PROV. CCAN

384 90374 DAVETTE, Georges-Edouard QC CAN SPORTIF BROMONT = =FF=FFD.N.S.
389 90418 ROBERT, Jonathan QC CAN = =FF=FFD.N.S.
388 90422 HEBERT, Martin QC CAN = =FF=FFD.N.S.
398 90433 INCONNU, QC CAN = =FF=FFD.N.S.
361 98221 PAQUETTE, Mathieu QC CAN PROMUTUEL = =FF=FFD.N.S.
354 98706 DUBE, Laurence QC CAN CVM SATURN = =FF=FFD.N.S.

 


Return to Canadian Cyclist homepage | Back to Top
Coach Chris November 19
 
BikeSports Xmas Dec 3
 
ARG button Sept 17.14
 

 

 

 
Dundas Speed Shop - Jan 11 (+524)
 
  


 
 © Copyright 1998-2014 Canadian Cyclist. All rights reserved.  Privacy Policy | Contact | Subscribe to RSS Feed  | Login